sensor_id;sensor_type;location;lat;lon;timestamp;pressure;altitude;pressure_sealevel;temperature;humidity
46955;BME280;32708;51.212;6.788;2023-06-14T00:00:20;100693.13;;;25.30;34.64
46955;BME280;32708;51.212;6.788;2023-06-14T00:02:47;100696.75;;;25.27;34.82
46955;BME280;32708;51.212;6.788;2023-06-14T00:05:13;100697.34;;;25.15;34.94
46955;BME280;32708;51.212;6.788;2023-06-14T00:07:42;100691.78;;;25.11;35.21
46955;BME280;32708;51.212;6.788;2023-06-14T00:10:11;100703.22;;;25.20;35.12
46955;BME280;32708;51.212;6.788;2023-06-14T00:12:38;100700.38;;;25.24;34.71
46955;BME280;32708;51.212;6.788;2023-06-14T00:15:06;100716.63;;;24.27;35.85
46955;BME280;32708;51.212;6.788;2023-06-14T00:17:32;100709.09;;;24.20;36.54
46955;BME280;32708;51.212;6.788;2023-06-14T00:19:59;100701.91;;;24.64;36.04
46955;BME280;32708;51.212;6.788;2023-06-14T00:22:26;100704.31;;;24.62;35.27
46955;BME280;32708;51.212;6.788;2023-06-14T00:24:54;100710.06;;;24.48;35.81
46955;BME280;32708;51.212;6.788;2023-06-14T00:27:20;100713.91;;;24.61;35.47
46955;BME280;32708;51.212;6.788;2023-06-14T00:29:46;100712.53;;;24.76;35.05
46955;BME280;32708;51.212;6.788;2023-06-14T00:32:13;100713.06;;;24.64;35.67
46955;BME280;32708;51.212;6.788;2023-06-14T00:34:39;100718.19;;;24.69;35.06
46955;BME280;32708;51.212;6.788;2023-06-14T00:37:08;100718.28;;;24.96;34.87
46955;BME280;32708;51.212;6.788;2023-06-14T00:39:35;100711.13;;;24.61;35.34
46955;BME280;32708;51.212;6.788;2023-06-14T00:42:01;100716.84;;;24.47;36.00
46955;BME280;32708;51.212;6.788;2023-06-14T00:44:27;100718.00;;;24.49;35.82
46955;BME280;32708;51.212;6.788;2023-06-14T00:46:53;100723.13;;;24.58;35.60
46955;BME280;32708;51.212;6.788;2023-06-14T00:49:24;100717.84;;;24.63;35.93
46955;BME280;32708;51.212;6.788;2023-06-14T00:51:50;100715.81;;;24.26;36.53
46955;BME280;32708;51.212;6.788;2023-06-14T00:54:18;100720.56;;;24.33;36.54
46955;BME280;32708;51.212;6.788;2023-06-14T00:56:44;100717.81;;;24.26;36.71
46955;BME280;32708;51.212;6.788;2023-06-14T00:59:12;100714.69;;;24.20;37.03
46955;BME280;32708;51.212;6.788;2023-06-14T01:01:38;100718.25;;;24.21;36.47
46955;BME280;32708;51.212;6.788;2023-06-14T01:04:08;100723.06;;;24.20;37.09
46955;BME280;32708;51.212;6.788;2023-06-14T01:09:36;100734.16;;;24.27;37.30
46955;BME280;32708;51.212;6.788;2023-06-14T01:12:21;100727.53;;;24.07;37.43
46955;BME280;32708;51.212;6.788;2023-06-14T01:14:53;100739.56;;;24.00;37.40
46955;BME280;32708;51.212;6.788;2023-06-14T01:17:21;100733.69;;;23.87;37.86
46955;BME280;32708;51.212;6.788;2023-06-14T01:19:50;100737.03;;;23.65;38.12
46955;BME280;32708;51.212;6.788;2023-06-14T01:22:26;100731.03;;;23.73;37.91
46955;BME280;32708;51.212;6.788;2023-06-14T01:24:55;100732.00;;;23.38;38.47
46955;BME280;32708;51.212;6.788;2023-06-14T01:27:26;100737.91;;;23.47;38.47
46955;BME280;32708;51.212;6.788;2023-06-14T01:29:56;100736.25;;;23.57;38.60
46955;BME280;32708;51.212;6.788;2023-06-14T01:32:30;100734.59;;;23.74;38.05
46955;BME280;32708;51.212;6.788;2023-06-14T01:34:56;100729.97;;;23.42;38.75
46955;BME280;32708;51.212;6.788;2023-06-14T01:37:22;100736.78;;;23.38;38.99
46955;BME280;32708;51.212;6.788;2023-06-14T01:39:50;100735.88;;;23.55;38.94
46955;BME280;32708;51.212;6.788;2023-06-14T01:42:20;100739.56;;;23.34;38.89
46955;BME280;32708;51.212;6.788;2023-06-14T01:44:49;100732.91;;;23.17;39.68
46955;BME280;32708;51.212;6.788;2023-06-14T01:47:16;100733.09;;;23.58;38.88
46955;BME280;32708;51.212;6.788;2023-06-14T01:49:42;100727.88;;;23.64;39.20
46955;BME280;32708;51.212;6.788;2023-06-14T01:52:08;100729.88;;;23.67;38.70
46955;BME280;32708;51.212;6.788;2023-06-14T01:54:36;100736.59;;;23.73;38.81
46955;BME280;32708;51.212;6.788;2023-06-14T01:57:08;100736.69;;;23.52;38.95
46955;BME280;32708;51.212;6.788;2023-06-14T01:59:34;100736.44;;;23.25;39.60
46955;BME280;32708;51.212;6.788;2023-06-14T02:02:03;100737.91;;;23.51;39.47
46955;BME280;32708;51.212;6.788;2023-06-14T02:04:31;100728.38;;;23.45;39.13
46955;BME280;32708;51.212;6.788;2023-06-14T02:06:58;100736.81;;;23.30;39.12
46955;BME280;32708;51.212;6.788;2023-06-14T02:09:24;100731.00;;;22.96;40.14
46955;BME280;32708;51.212;6.788;2023-06-14T02:11:53;100734.56;;;23.04;40.05
46955;BME280;32708;51.212;6.788;2023-06-14T02:14:20;100730.41;;;23.37;39.24
46955;BME280;32708;51.212;6.788;2023-06-14T02:16:46;100732.16;;;23.06;40.00
46955;BME280;32708;51.212;6.788;2023-06-14T02:19:16;100721.75;;;23.17;39.57
46955;BME280;32708;51.212;6.788;2023-06-14T02:21:44;100732.66;;;23.60;39.12
46955;BME280;32708;51.212;6.788;2023-06-14T02:24:13;100731.59;;;23.40;39.02
46955;BME280;32708;51.212;6.788;2023-06-14T02:26:39;100728.53;;;23.13;39.67
46955;BME280;32708;51.212;6.788;2023-06-14T02:29:07;100731.41;;;22.95;39.90
46955;BME280;32708;51.212;6.788;2023-06-14T02:31:38;100738.19;;;22.83;40.09
46955;BME280;32708;51.212;6.788;2023-06-14T02:34:05;100727.00;;;23.04;39.27
46955;BME280;32708;51.212;6.788;2023-06-14T02:36:31;100735.81;;;22.82;40.11
46955;BME280;32708;51.212;6.788;2023-06-14T02:38:59;100747.75;;;22.64;40.49
46955;BME280;32708;51.212;6.788;2023-06-14T02:41:26;100742.56;;;22.95;39.94
46955;BME280;32708;51.212;6.788;2023-06-14T02:43:53;100736.56;;;22.93;39.73
46955;BME280;32708;51.212;6.788;2023-06-14T02:46:19;100748.53;;;22.75;40.15
46955;BME280;32708;51.212;6.788;2023-06-14T02:48:48;100749.75;;;22.74;39.88
46955;BME280;32708;51.212;6.788;2023-06-14T02:51:14;100748.88;;;23.02;39.35
46955;BME280;32708;51.212;6.788;2023-06-14T02:53:40;100749.72;;;22.89;39.68
46955;BME280;32708;51.212;6.788;2023-06-14T02:56:06;100756.06;;;22.93;40.12
46955;BME280;32708;51.212;6.788;2023-06-14T02:58:32;100761.13;;;23.19;39.46
46955;BME280;32708;51.212;6.788;2023-06-14T03:00:59;100756.88;;;22.93;39.84
46955;BME280;32708;51.212;6.788;2023-06-14T03:03:29;100760.47;;;22.94;39.81
46955;BME280;32708;51.212;6.788;2023-06-14T03:05:56;100758.16;;;22.32;40.30
46955;BME280;32708;51.212;6.788;2023-06-14T03:08:26;100763.63;;;22.82;39.92
46955;BME280;32708;51.212;6.788;2023-06-14T03:10:56;100763.56;;;23.10;39.53
46955;BME280;32708;51.212;6.788;2023-06-14T03:13:24;100784.28;;;22.98;39.78
46955;BME280;32708;51.212;6.788;2023-06-14T03:15:51;100783.59;;;22.37;40.89
46955;BME280;32708;51.212;6.788;2023-06-14T03:18:19;100777.16;;;22.76;39.68
46955;BME280;32708;51.212;6.788;2023-06-14T03:20:50;100779.16;;;22.93;40.07
46955;BME280;32708;51.212;6.788;2023-06-14T03:23:17;100786.31;;;22.69;40.20
46955;BME280;32708;51.212;6.788;2023-06-14T03:25:44;100790.34;;;22.33;41.10
46955;BME280;32708;51.212;6.788;2023-06-14T03:28:12;100779.53;;;22.77;40.26
46955;BME280;32708;51.212;6.788;2023-06-14T03:30:39;100799.84;;;22.49;40.50
46955;BME280;32708;51.212;6.788;2023-06-14T03:33:05;100782.00;;;22.47;40.58
46955;BME280;32708;51.212;6.788;2023-06-14T03:35:34;100794.69;;;22.59;40.44
46955;BME280;32708;51.212;6.788;2023-06-14T03:38:01;100794.69;;;22.87;40.16
46955;BME280;32708;51.212;6.788;2023-06-14T03:40:28;100798.66;;;22.75;40.49
46955;BME280;32708;51.212;6.788;2023-06-14T03:43:00;100795.53;;;23.72;38.43
46955;BME280;32708;51.212;6.788;2023-06-14T03:45:27;100800.00;;;23.48;38.75
46955;BME280;32708;51.212;6.788;2023-06-14T03:47:54;100801.00;;;23.89;37.58
46955;BME280;32708;51.212;6.788;2023-06-14T03:50:20;100804.63;;;23.86;37.53
46955;BME280;32708;51.212;6.788;2023-06-14T03:52:48;100807.16;;;23.52;38.27
46955;BME280;32708;51.212;6.788;2023-06-14T03:55:15;100802.25;;;23.81;37.66
46955;BME280;32708;51.212;6.788;2023-06-14T03:57:42;100806.88;;;24.95;35.92
46955;BME280;32708;51.212;6.788;2023-06-14T04:00:12;100809.19;;;24.66;35.18
46955;BME280;32708;51.212;6.788;2023-06-14T04:02:43;100813.84;;;25.18;35.18
46955;BME280;32708;51.212;6.788;2023-06-14T04:05:10;100806.59;;;24.41;35.91
46955;BME280;32708;51.212;6.788;2023-06-14T04:07:40;100819.59;;;25.04;35.29
46955;BME280;32708;51.212;6.788;2023-06-14T04:10:12;100815.75;;;25.86;33.89
46955;BME280;32708;51.212;6.788;2023-06-14T04:12:39;100809.31;;;24.90;34.98
46955;BME280;32708;51.212;6.788;2023-06-14T04:15:06;100818.28;;;25.46;35.18
46955;BME280;32708;51.212;6.788;2023-06-14T04:17:36;100816.00;;;25.68;34.10
46955;BME280;32708;51.212;6.788;2023-06-14T04:20:04;100818.44;;;25.93;33.76
46955;BME280;32708;51.212;6.788;2023-06-14T04:22:32;100825.47;;;26.04;33.53
46955;BME280;32708;51.212;6.788;2023-06-14T04:24:59;100824.81;;;26.47;33.30
46955;BME280;32708;51.212;6.788;2023-06-14T04:27:27;100826.22;;;27.02;32.37
46955;BME280;32708;51.212;6.788;2023-06-14T04:29:55;100835.25;;;26.43;32.76
46955;BME280;32708;51.212;6.788;2023-06-14T04:32:31;100851.28;;;25.89;33.72
46955;BME280;32708;51.212;6.788;2023-06-14T04:35:08;100837.09;;;26.53;32.70
46955;BME280;32708;51.212;6.788;2023-06-14T04:37:37;100842.81;;;26.46;32.46
46955;BME280;32708;51.212;6.788;2023-06-14T04:40:08;100844.47;;;25.59;34.19
46955;BME280;32708;51.212;6.788;2023-06-14T04:42:35;100848.44;;;25.62;33.73
46955;BME280;32708;51.212;6.788;2023-06-14T04:45:05;100848.75;;;24.58;34.83
46955;BME280;32708;51.212;6.788;2023-06-14T04:47:33;100850.41;;;25.95;33.83
46955;BME280;32708;51.212;6.788;2023-06-14T04:50:00;100855.69;;;26.67;32.83
46955;BME280;32708;51.212;6.788;2023-06-14T04:52:29;100853.06;;;25.07;34.87
46955;BME280;32708;51.212;6.788;2023-06-14T04:54:56;100857.94;;;25.98;34.09
46955;BME280;32708;51.212;6.788;2023-06-14T04:57:24;100853.06;;;27.23;32.44
46955;BME280;32708;51.212;6.788;2023-06-14T04:59:54;100853.41;;;26.82;32.93
46955;BME280;32708;51.212;6.788;2023-06-14T05:02:25;100872.50;;;25.86;34.47
46955;BME280;32708;51.212;6.788;2023-06-14T05:04:54;100865.94;;;28.33;31.59
46955;BME280;32708;51.212;6.788;2023-06-14T05:07:22;100873.72;;;27.73;31.25
46955;BME280;32708;51.212;6.788;2023-06-14T05:09:51;100868.00;;;27.56;31.40
46955;BME280;32708;51.212;6.788;2023-06-14T05:12:17;100872.41;;;28.62;30.01
46955;BME280;32708;51.212;6.788;2023-06-14T05:14:45;100875.91;;;27.81;31.12
46955;BME280;32708;51.212;6.788;2023-06-14T05:17:11;100879.91;;;28.52;30.43
46955;BME280;32708;51.212;6.788;2023-06-14T05:19:37;100878.56;;;26.35;32.89
46955;BME280;32708;51.212;6.788;2023-06-14T05:22:04;100872.97;;;27.29;31.93
46955;BME280;32708;51.212;6.788;2023-06-14T05:24:30;100881.41;;;25.77;34.02
46955;BME280;32708;51.212;6.788;2023-06-14T05:26:57;100873.38;;;24.11;37.25
46955;BME280;32708;51.212;6.788;2023-06-14T05:29:23;100886.38;;;24.32;36.48
46955;BME280;32708;51.212;6.788;2023-06-14T05:31:50;100885.13;;;26.25;34.31
46955;BME280;32708;51.212;6.788;2023-06-14T05:34:16;100887.22;;;25.90;34.20
46955;BME280;32708;51.212;6.788;2023-06-14T05:36:42;100889.56;;;25.95;34.72
46955;BME280;32708;51.212;6.788;2023-06-14T05:39:08;100880.47;;;27.75;31.90
46955;BME280;32708;51.212;6.788;2023-06-14T05:41:35;100874.00;;;28.47;31.63
46955;BME280;32708;51.212;6.788;2023-06-14T05:44:01;100880.09;;;27.53;32.12
46955;BME280;32708;51.212;6.788;2023-06-14T05:46:27;100883.09;;;26.99;33.11
46955;BME280;32708;51.212;6.788;2023-06-14T05:48:55;100881.69;;;28.10;31.99
46955;BME280;32708;51.212;6.788;2023-06-14T05:51:22;100892.50;;;28.93;30.47
46955;BME280;32708;51.212;6.788;2023-06-14T05:53:51;100886.84;;;28.12;30.91
46955;BME280;32708;51.212;6.788;2023-06-14T05:56:18;100893.53;;;26.52;33.26
46955;BME280;32708;51.212;6.788;2023-06-14T05:58:45;100902.44;;;27.57;31.94
46955;BME280;32708;51.212;6.788;2023-06-14T06:01:11;100895.53;;;28.01;31.80
46955;BME280;32708;51.212;6.788;2023-06-14T06:03:40;100908.53;;;26.11;34.18
46955;BME280;32708;51.212;6.788;2023-06-14T06:06:07;100902.50;;;26.13;35.04
46955;BME280;32708;51.212;6.788;2023-06-14T06:08:34;100906.00;;;26.71;33.52
46955;BME280;32708;51.212;6.788;2023-06-14T06:11:00;100911.63;;;26.94;33.06
46955;BME280;32708;51.212;6.788;2023-06-14T06:13:27;100908.72;;;27.01;33.22
46955;BME280;32708;51.212;6.788;2023-06-14T06:15:53;100913.94;;;26.99;33.42
46955;BME280;32708;51.212;6.788;2023-06-14T06:18:19;100913.94;;;27.62;32.58
46955;BME280;32708;51.212;6.788;2023-06-14T06:20:46;100908.25;;;28.58;31.40
46955;BME280;32708;51.212;6.788;2023-06-14T06:23:13;100911.75;;;29.82;29.57
46955;BME280;32708;51.212;6.788;2023-06-14T06:25:39;100910.50;;;29.70;29.84
46955;BME280;32708;51.212;6.788;2023-06-14T06:28:05;100913.94;;;26.99;33.22
46955;BME280;32708;51.212;6.788;2023-06-14T06:30:31;100911.91;;;27.86;31.79
46955;BME280;32708;51.212;6.788;2023-06-14T06:32:58;100910.56;;;29.96;29.17
46955;BME280;32708;51.212;6.788;2023-06-14T06:35:24;100910.75;;;29.47;29.39
46955;BME280;32708;51.212;6.788;2023-06-14T06:37:50;100915.13;;;29.48;29.45
46955;BME280;32708;51.212;6.788;2023-06-14T06:40:16;100920.53;;;28.64;30.26
46955;BME280;32708;51.212;6.788;2023-06-14T06:42:43;100916.69;;;28.91;30.13
46955;BME280;32708;51.212;6.788;2023-06-14T06:45:12;100924.25;;;28.94;30.46
46955;BME280;32708;51.212;6.788;2023-06-14T06:47:38;100925.09;;;30.83;28.17
46955;BME280;32708;51.212;6.788;2023-06-14T06:50:05;100921.06;;;28.75;29.71
46955;BME280;32708;51.212;6.788;2023-06-14T06:52:51;100924.13;;;28.12;30.15
46955;BME280;32708;51.212;6.788;2023-06-14T06:55:27;100930.00;;;28.02;29.69
46955;BME280;32708;51.212;6.788;2023-06-14T06:57:53;100929.75;;;29.43;29.02
46955;BME280;32708;51.212;6.788;2023-06-14T07:00:20;100930.63;;;28.78;28.99
46955;BME280;32708;51.212;6.788;2023-06-14T07:02:47;100931.09;;;29.22;28.39
46955;BME280;32708;51.212;6.788;2023-06-14T07:05:13;100923.31;;;29.71;27.52
46955;BME280;32708;51.212;6.788;2023-06-14T07:07:39;100933.78;;;28.11;28.93
46955;BME280;32708;51.212;6.788;2023-06-14T07:10:06;100929.66;;;28.52;27.88
46955;BME280;32708;51.212;6.788;2023-06-14T07:12:33;100931.78;;;28.97;27.72
46955;BME280;32708;51.212;6.788;2023-06-14T07:15:08;100935.56;;;28.21;28.28
46955;BME280;32708;51.212;6.788;2023-06-14T07:17:35;100940.34;;;27.45;29.14
46955;BME280;32708;51.212;6.788;2023-06-14T07:20:03;100943.31;;;27.78;28.79
46955;BME280;32708;51.212;6.788;2023-06-14T07:22:33;100940.91;;;28.52;27.79
46955;BME280;32708;51.212;6.788;2023-06-14T07:24:59;100946.09;;;28.17;27.77
46955;BME280;32708;51.212;6.788;2023-06-14T07:27:25;100942.50;;;28.17;27.70
46955;BME280;32708;51.212;6.788;2023-06-14T07:29:51;100938.78;;;28.40;27.56
46955;BME280;32708;51.212;6.788;2023-06-14T07:32:17;100939.31;;;29.00;26.74
46955;BME280;32708;51.212;6.788;2023-06-14T07:34:43;100933.59;;;29.20;26.77
46955;BME280;32708;51.212;6.788;2023-06-14T07:37:10;100942.09;;;28.35;27.52
46955;BME280;32708;51.212;6.788;2023-06-14T07:39:36;100936.78;;;28.20;28.03
46955;BME280;32708;51.212;6.788;2023-06-14T07:42:02;100951.22;;;27.63;28.30
46955;BME280;32708;51.212;6.788;2023-06-14T07:44:30;100939.66;;;28.86;27.44
46955;BME280;32708;51.212;6.788;2023-06-14T07:46:59;100935.00;;;28.79;26.85
46955;BME280;32708;51.212;6.788;2023-06-14T07:49:27;100943.97;;;27.85;27.53
46955;BME280;32708;51.212;6.788;2023-06-14T07:51:53;100933.34;;;28.49;26.28
46955;BME280;32708;51.212;6.788;2023-06-14T07:54:20;100933.41;;;29.98;25.93
46955;BME280;32708;51.212;6.788;2023-06-14T07:56:50;100937.81;;;28.79;27.17
46955;BME280;32708;51.212;6.788;2023-06-14T07:59:17;100938.22;;;29.26;26.32
46955;BME280;32708;51.212;6.788;2023-06-14T08:01:43;100943.38;;;30.15;25.30
46955;BME280;32708;51.212;6.788;2023-06-14T08:04:14;100941.53;;;30.08;24.94
46955;BME280;32708;51.212;6.788;2023-06-14T08:06:40;100937.63;;;29.19;25.86
46955;BME280;32708;51.212;6.788;2023-06-14T08:09:10;100946.56;;;29.01;26.63
46955;BME280;32708;51.212;6.788;2023-06-14T08:11:37;100946.53;;;29.75;26.14
46955;BME280;32708;51.212;6.788;2023-06-14T08:14:03;100944.38;;;29.21;26.29
46955;BME280;32708;51.212;6.788;2023-06-14T08:16:30;100942.22;;;30.12;25.58
46955;BME280;32708;51.212;6.788;2023-06-14T08:18:56;100944.91;;;29.32;25.49
46955;BME280;32708;51.212;6.788;2023-06-14T08:21:22;100935.03;;;30.50;23.77
46955;BME280;32708;51.212;6.788;2023-06-14T08:23:48;100942.59;;;29.44;24.59
46955;BME280;32708;51.212;6.788;2023-06-14T08:26:14;100942.47;;;29.18;25.08
46955;BME280;32708;51.212;6.788;2023-06-14T08:28:40;100944.28;;;30.76;24.03
46955;BME280;32708;51.212;6.788;2023-06-14T08:31:08;100942.94;;;30.29;24.58
46955;BME280;32708;51.212;6.788;2023-06-14T08:33:34;100944.75;;;29.23;25.65
46955;BME280;32708;51.212;6.788;2023-06-14T08:36:00;100952.56;;;29.61;25.42
46955;BME280;32708;51.212;6.788;2023-06-14T08:38:26;100952.31;;;27.89;27.32
46955;BME280;32708;51.212;6.788;2023-06-14T08:40:57;100956.22;;;27.75;27.69
46955;BME280;32708;51.212;6.788;2023-06-14T08:43:24;100955.44;;;29.28;26.36
46955;BME280;32708;51.212;6.788;2023-06-14T08:46:03;100938.22;;;29.26;26.90
46955;BME280;32708;51.212;6.788;2023-06-14T08:48:30;100961.47;;;28.98;27.20
46955;BME280;32708;51.212;6.788;2023-06-14T08:51:01;100951.00;;;30.02;26.43
46955;BME280;32708;51.212;6.788;2023-06-14T08:53:34;100955.47;;;27.91;28.11
46955;BME280;32708;51.212;6.788;2023-06-14T08:56:03;100953.25;;;28.02;28.36
46955;BME280;32708;51.212;6.788;2023-06-14T08:58:34;100948.25;;;29.98;27.20
46955;BME280;32708;51.212;6.788;2023-06-14T09:01:02;100946.28;;;30.11;27.80
46955;BME280;32708;51.212;6.788;2023-06-14T09:03:28;100944.41;;;29.05;28.33
46955;BME280;32708;51.212;6.788;2023-06-14T09:05:59;100949.88;;;28.96;29.32
46955;BME280;32708;51.212;6.788;2023-06-14T09:08:27;100951.38;;;29.75;27.67
46955;BME280;32708;51.212;6.788;2023-06-14T09:10:57;100954.81;;;29.08;27.86
46955;BME280;32708;51.212;6.788;2023-06-14T09:13:23;100954.53;;;29.02;27.91
46955;BME280;32708;51.212;6.788;2023-06-14T09:15:50;100947.03;;;29.57;27.14
46955;BME280;32708;51.212;6.788;2023-06-14T09:18:17;100956.59;;;29.31;28.05
46955;BME280;32708;51.212;6.788;2023-06-14T09:20:43;100958.53;;;29.63;27.76
46955;BME280;32708;51.212;6.788;2023-06-14T09:23:09;100972.41;;;28.43;29.54
46955;BME280;32708;51.212;6.788;2023-06-14T09:25:43;100958.66;;;28.82;29.58
46955;BME280;32708;51.212;6.788;2023-06-14T09:28:10;100957.66;;;28.19;30.03
46955;BME280;32708;51.212;6.788;2023-06-14T09:30:37;100965.28;;;28.19;30.20
46955;BME280;32708;51.212;6.788;2023-06-14T09:33:04;100958.59;;;29.01;29.29
46955;BME280;32708;51.212;6.788;2023-06-14T09:35:33;100969.75;;;29.79;27.70
46955;BME280;32708;51.212;6.788;2023-06-14T09:37:59;100972.88;;;28.58;29.33
46955;BME280;32708;51.212;6.788;2023-06-14T09:40:26;100974.03;;;28.93;29.10
46955;BME280;32708;51.212;6.788;2023-06-14T09:42:54;100969.50;;;28.11;29.76
46955;BME280;32708;51.212;6.788;2023-06-14T09:45:21;100979.00;;;28.69;28.28
46955;BME280;32708;51.212;6.788;2023-06-14T09:47:50;100969.75;;;27.37;29.96
46955;BME280;32708;51.212;6.788;2023-06-14T09:50:16;100982.53;;;28.90;28.28
46955;BME280;32708;51.212;6.788;2023-06-14T09:52:46;100969.00;;;28.52;28.16
46955;BME280;32708;51.212;6.788;2023-06-14T09:55:19;100982.13;;;27.39;29.45
46955;BME280;32708;51.212;6.788;2023-06-14T09:57:47;100970.78;;;29.11;26.78
46955;BME280;32708;51.212;6.788;2023-06-14T10:00:16;100986.47;;;28.60;27.45
46955;BME280;32708;51.212;6.788;2023-06-14T10:02:54;100977.78;;;27.98;28.45
46955;BME280;32708;51.212;6.788;2023-06-14T10:05:28;100987.50;;;28.49;27.52
46955;BME280;32708;51.212;6.788;2023-06-14T10:08:08;101001.25;;;27.64;28.55
46955;BME280;32708;51.212;6.788;2023-06-14T10:10:35;100991.59;;;27.69;29.30
46955;BME280;32708;51.212;6.788;2023-06-14T10:13:04;100984.13;;;28.91;27.90
46955;BME280;32708;51.212;6.788;2023-06-14T10:16:05;100990.44;;;27.43;29.40
46955;BME280;32708;51.212;6.788;2023-06-14T10:18:51;100984.41;;;26.74;30.33
46955;BME280;32708;51.212;6.788;2023-06-14T10:21:44;101004.41;;;27.47;29.59
46955;BME280;32708;51.212;6.788;2023-06-14T10:24:17;100980.38;;;26.48;30.47
46955;BME280;32708;51.212;6.788;2023-06-14T10:26:57;101001.09;;;26.81;30.43
46955;BME280;32708;51.212;6.788;2023-06-14T10:29:24;100982.44;;;27.65;29.49
46955;BME280;32708;51.212;6.788;2023-06-14T10:31:56;100990.66;;;27.95;29.63
46955;BME280;32708;51.212;6.788;2023-06-14T10:34:29;100978.38;;;27.46;30.17
46955;BME280;32708;51.212;6.788;2023-06-14T10:37:11;100979.59;;;28.44;28.79
46955;BME280;32708;51.212;6.788;2023-06-14T10:39:45;100970.34;;;28.96;27.79
46955;BME280;32708;51.212;6.788;2023-06-14T10:42:13;100967.06;;;29.14;27.50
46955;BME280;32708;51.212;6.788;2023-06-14T10:44:49;100963.78;;;28.34;28.36
46955;BME280;32708;51.212;6.788;2023-06-14T10:47:24;100971.25;;;28.57;27.94
46955;BME280;32708;51.212;6.788;2023-06-14T10:52:33;100959.06;;;29.13;28.10
46955;BME280;32708;51.212;6.788;2023-06-14T10:55:12;100974.16;;;28.37;28.73
46955;BME280;32708;51.212;6.788;2023-06-14T10:57:50;100979.22;;;27.43;29.61
46955;BME280;32708;51.212;6.788;2023-06-14T11:00:20;100982.06;;;28.22;28.88
46955;BME280;32708;51.212;6.788;2023-06-14T11:03:50;100961.34;;;28.36;29.33
46955;BME280;32708;51.212;6.788;2023-06-14T11:06:22;100949.59;;;28.58;29.05
46955;BME280;32708;51.212;6.788;2023-06-14T11:09:57;100967.88;;;28.98;29.38
46955;BME280;32708;51.212;6.788;2023-06-14T11:12:33;100965.28;;;27.83;29.81
46955;BME280;32708;51.212;6.788;2023-06-14T11:15:01;100967.38;;;27.55;30.34
46955;BME280;32708;51.212;6.788;2023-06-14T11:17:28;100959.50;;;28.46;29.91
46955;BME280;32708;51.212;6.788;2023-06-14T11:20:13;100970.69;;;28.82;29.91
46955;BME280;32708;51.212;6.788;2023-06-14T11:22:49;100960.53;;;28.36;30.23
46955;BME280;32708;51.212;6.788;2023-06-14T11:25:18;100967.41;;;28.51;29.79
46955;BME280;32708;51.212;6.788;2023-06-14T11:27:45;100960.03;;;28.21;30.13
46955;BME280;32708;51.212;6.788;2023-06-14T11:30:13;100959.81;;;27.95;30.71
46955;BME280;32708;51.212;6.788;2023-06-14T11:32:39;100954.69;;;28.46;30.44
46955;BME280;32708;51.212;6.788;2023-06-14T11:35:08;100939.59;;;28.89;29.71
46955;BME280;32708;51.212;6.788;2023-06-14T11:37:36;100954.53;;;29.02;29.71
46955;BME280;32708;51.212;6.788;2023-06-14T11:40:10;100950.97;;;28.13;31.19
46955;BME280;32708;51.212;6.788;2023-06-14T11:42:40;100948.94;;;29.31;29.63
46955;BME280;32708;51.212;6.788;2023-06-14T11:45:11;100956.81;;;28.59;30.19
46955;BME280;32708;51.212;6.788;2023-06-14T11:47:39;100949.09;;;29.41;29.61
46955;BME280;32708;51.212;6.788;2023-06-14T11:50:08;100942.50;;;31.04;27.79
46955;BME280;32708;51.212;6.788;2023-06-14T11:52:37;100939.31;;;30.16;28.95
46955;BME280;32708;51.212;6.788;2023-06-14T11:55:05;100939.06;;;30.87;27.85
46955;BME280;32708;51.212;6.788;2023-06-14T11:57:35;100935.72;;;29.45;29.28
46955;BME280;32708;51.212;6.788;2023-06-14T12:00:08;100932.06;;;29.31;29.40
46955;BME280;32708;51.212;6.788;2023-06-14T12:02:38;100942.31;;;29.09;29.84
46955;BME280;32708;51.212;6.788;2023-06-14T12:05:07;100944.94;;;29.00;29.54
46955;BME280;32708;51.212;6.788;2023-06-14T12:07:39;100937.03;;;28.46;30.48
46955;BME280;32708;51.212;6.788;2023-06-14T12:10:09;100942.03;;;29.49;29.08
46955;BME280;32708;51.212;6.788;2023-06-14T12:12:39;100934.78;;;29.51;29.16
46955;BME280;32708;51.212;6.788;2023-06-14T12:15:08;100938.53;;;29.45;29.24
46955;BME280;32708;51.212;6.788;2023-06-14T12:17:36;100919.63;;;29.74;28.42
46955;BME280;32708;51.212;6.788;2023-06-14T12:20:12;100927.56;;;29.05;29.46
46955;BME280;32708;51.212;6.788;2023-06-14T12:22:53;100948.72;;;29.10;29.29
46955;BME280;32708;51.212;6.788;2023-06-14T12:25:33;100949.94;;;28.76;30.36
46955;BME280;32708;51.212;6.788;2023-06-14T12:28:07;100943.63;;;29.04;30.27
46955;BME280;32708;51.212;6.788;2023-06-14T12:30:36;100931.31;;;29.15;30.02
46955;BME280;32708;51.212;6.788;2023-06-14T12:33:06;100931.75;;;30.13;29.30
46955;BME280;32708;51.212;6.788;2023-06-14T12:35:33;100928.75;;;29.49;29.19
46955;BME280;32708;51.212;6.788;2023-06-14T12:38:01;100934.34;;;30.58;28.29
46955;BME280;32708;51.212;6.788;2023-06-14T12:40:27;100925.56;;;30.18;28.55
46955;BME280;32708;51.212;6.788;2023-06-14T12:42:53;100933.44;;;30.10;28.94
46955;BME280;32708;51.212;6.788;2023-06-14T12:45:20;100930.94;;;30.89;27.89
46955;BME280;32708;51.212;6.788;2023-06-14T12:47:46;100913.09;;;29.48;28.66
46955;BME280;32708;51.212;6.788;2023-06-14T12:50:12;100924.28;;;29.23;29.95
46955;BME280;32708;51.212;6.788;2023-06-14T12:52:38;100930.19;;;29.12;29.72
46955;BME280;32708;51.212;6.788;2023-06-14T12:55:05;100927.91;;;29.36;29.43
46955;BME280;32708;51.212;6.788;2023-06-14T12:57:32;100937.59;;;29.35;29.65
46955;BME280;32708;51.212;6.788;2023-06-14T13:00:04;100921.59;;;29.03;30.42
46955;BME280;32708;51.212;6.788;2023-06-14T13:02:31;100928.50;;;29.60;30.27
46955;BME280;32708;51.212;6.788;2023-06-14T13:04:57;100922.59;;;29.96;29.98